createdAt,value
2019-03-31T00:00:10.499Z,10.60
2019-03-31T00:02:39.254Z,10.60
2019-03-31T00:05:07.784Z,10.60
2019-03-31T00:07:36.478Z,10.50
2019-03-31T00:10:07.476Z,10.50
2019-03-31T00:12:36.008Z,10.50
2019-03-31T00:15:07.125Z,10.40
2019-03-31T00:17:35.654Z,10.30
2019-03-31T00:20:05.888Z,10.20
2019-03-31T00:22:34.723Z,10.20
2019-03-31T00:25:04.335Z,10.10
2019-03-31T00:27:32.942Z,10.00
2019-03-31T00:30:01.510Z,10.10
2019-03-31T00:32:30.039Z,10.00
2019-03-31T00:34:58.530Z,10.10
2019-03-31T00:37:27.354Z,10.00
2019-03-31T00:39:55.811Z,9.90
2019-03-31T00:42:24.286Z,9.80
2019-03-31T00:44:52.746Z,9.80
2019-03-31T00:47:21.218Z,9.60
2019-03-31T00:49:49.675Z,9.60
2019-03-31T00:52:18.155Z,9.60
2019-03-31T00:54:46.606Z,9.60
2019-03-31T00:57:15.154Z,9.50
2019-03-31T00:59:43.681Z,9.40
2019-03-31T01:02:15.983Z,9.40
2019-03-31T01:04:44.859Z,9.30
2019-03-31T01:07:13.972Z,9.20
2019-03-31T01:09:43.294Z,9.20
2019-03-31T01:12:12.047Z,9.10
2019-03-31T01:14:40.662Z,9.10
2019-03-31T01:17:09.682Z,9.00
2019-03-31T01:19:38.915Z,8.90
2019-03-31T01:22:07.703Z,8.90
2019-03-31T01:24:36.258Z,9.00
2019-03-31T01:27:06.914Z,8.90
2019-03-31T01:29:35.816Z,8.90
2019-03-31T01:32:04.575Z,8.90
2019-03-31T01:34:33.103Z,8.80
2019-03-31T01:37:01.970Z,8.80
2019-03-31T01:39:31.688Z,8.80
2019-03-31T01:42:00.144Z,8.80
2019-03-31T01:44:29.024Z,8.70
2019-03-31T01:46:57.733Z,8.70
2019-03-31T01:49:26.531Z,8.80
2019-03-31T01:51:55.015Z,8.80
2019-03-31T01:54:23.547Z,8.80
2019-03-31T01:56:52.383Z,8.80
2019-03-31T01:59:20.834Z,8.80
2019-03-31T02:02:03.122Z,8.80
2019-03-31T02:04:19.494Z,8.70
2019-03-31T02:06:48.044Z,8.60
2019-03-31T02:09:16.496Z,8.60
2019-03-31T02:11:44.967Z,8.60
2019-03-31T02:14:13.418Z,8.50
2019-03-31T02:16:42.287Z,8.50
2019-03-31T02:19:10.742Z,8.40
2019-03-31T02:21:39.219Z,8.40
2019-03-31T02:24:07.683Z,8.30
2019-03-31T02:26:36.166Z,8.30
2019-03-31T02:29:04.895Z,8.30
2019-03-31T02:31:33.371Z,8.20
2019-03-31T02:34:01.823Z,8.20
2019-03-31T02:36:30.303Z,8.20
2019-03-31T02:38:58.832Z,8.20
2019-03-31T02:41:27.392Z,8.20
2019-03-31T02:43:55.848Z,8.20
2019-03-31T02:46:24.477Z,8.20
2019-03-31T02:48:52.941Z,8.20
2019-03-31T02:51:21.472Z,8.20
2019-03-31T02:53:50.035Z,8.10
2019-03-31T02:56:19.207Z,8.10
2019-03-31T02:58:48.509Z,8.00
2019-03-31T03:01:17.480Z,7.90
2019-03-31T03:03:47.705Z,7.90
2019-03-31T03:06:16.408Z,7.90
2019-03-31T03:08:46.963Z,7.80
2019-03-31T03:11:17.605Z,7.80
2019-03-31T03:13:49.080Z,7.80
2019-03-31T03:16:19.893Z,7.80
2019-03-31T03:18:48.771Z,7.70
2019-03-31T03:21:17.314Z,7.70
2019-03-31T03:23:46.164Z,7.70
2019-03-31T03:26:14.865Z,7.70
2019-03-31T03:28:43.396Z,7.60
2019-03-31T03:31:16.154Z,7.50
2019-03-31T03:33:42.656Z,7.60
2019-03-31T03:36:11.729Z,7.60
2019-03-31T03:38:40.328Z,7.50
2019-03-31T03:41:08.923Z,7.50
2019-03-31T03:43:54.280Z,7.50
2019-03-31T03:46:07.742Z,7.50
2019-03-31T03:48:36.363Z,7.40
2019-03-31T03:51:04.969Z,7.40
2019-03-31T03:53:33.665Z,7.40
2019-03-31T03:56:02.276Z,7.30
2019-03-31T03:58:30.833Z,7.30
2019-03-31T04:00:59.535Z,7.20
2019-03-31T04:03:30.710Z,7.30
2019-03-31T04:05:58.360Z,7.20
2019-03-31T04:08:26.916Z,7.10
2019-03-31T04:11:01.100Z,7.10
2019-03-31T04:13:29.659Z,7.00
2019-03-31T04:15:58.294Z,6.90
2019-03-31T04:18:27.174Z,6.90
2019-03-31T04:20:55.706Z,6.90
2019-03-31T04:23:24.548Z,6.80
2019-03-31T04:25:53.086Z,6.80
2019-03-31T04:28:21.622Z,6.80
2019-03-31T04:30:50.183Z,6.80
2019-03-31T04:33:18.719Z,6.80
2019-03-31T04:35:47.268Z,6.80
2019-03-31T04:38:15.914Z,6.90
2019-03-31T04:40:44.434Z,6.80
2019-03-31T04:43:13.320Z,6.90
2019-03-31T04:45:41.948Z,6.90
2019-03-31T04:48:10.485Z,6.90
2019-03-31T04:50:39.043Z,6.80
2019-03-31T04:53:07.538Z,6.80
2019-03-31T04:55:36.037Z,6.80
2019-03-31T04:58:04.516Z,6.80
2019-03-31T05:00:32.980Z,6.70
2019-03-31T05:03:01.540Z,6.80
2019-03-31T05:05:30.076Z,6.80
2019-03-31T05:07:58.851Z,6.70
2019-03-31T05:10:27.479Z,6.80
2019-03-31T05:12:56.325Z,6.80
2019-03-31T05:15:24.856Z,6.80
2019-03-31T05:17:53.317Z,6.70
2019-03-31T05:20:21.880Z,6.70
2019-03-31T05:22:52.845Z,6.70
2019-03-31T05:25:20.543Z,6.60
2019-03-31T05:27:49.006Z,6.60
2019-03-31T05:30:17.642Z,6.60
2019-03-31T05:32:46.171Z,6.50
2019-03-31T05:35:14.666Z,6.50
2019-03-31T05:37:50.794Z,6.60
2019-03-31T05:40:13.549Z,6.60
2019-03-31T05:42:42.084Z,6.60
2019-03-31T05:45:11.084Z,6.60
2019-03-31T05:47:39.550Z,6.60
2019-03-31T05:50:08.156Z,6.60
2019-03-31T05:52:36.711Z,6.60
2019-03-31T05:55:06.956Z,6.70
2019-03-31T05:57:35.439Z,6.70
2019-03-31T06:00:08.304Z,6.60
2019-03-31T06:02:36.790Z,6.60
2019-03-31T06:05:07.247Z,6.70
2019-03-31T06:07:36.120Z,6.70
2019-03-31T06:10:06.464Z,6.70
2019-03-31T06:12:34.920Z,6.70
2019-03-31T06:15:03.743Z,6.70
2019-03-31T06:17:32.279Z,6.70
2019-03-31T06:20:00.765Z,6.80
2019-03-31T06:22:29.305Z,6.80
2019-03-31T06:24:57.863Z,6.80
2019-03-31T06:27:26.324Z,6.90
2019-03-31T06:29:54.783Z,6.90
2019-03-31T06:32:23.263Z,6.90
2019-03-31T06:34:51.727Z,6.90
2019-03-31T06:37:20.283Z,6.90
2019-03-31T06:39:49.045Z,7.00
2019-03-31T06:42:17.608Z,7.00
2019-03-31T06:44:46.070Z,7.10
2019-03-31T06:47:14.630Z,7.10
2019-03-31T06:49:43.165Z,7.10
2019-03-31T06:52:11.651Z,7.20
2019-03-31T06:54:40.179Z,7.30
2019-03-31T06:57:08.926Z,7.30
2019-03-31T06:59:37.569Z,7.40
2019-03-31T07:02:06.172Z,7.50
2019-03-31T07:04:35.085Z,7.60
2019-03-31T07:07:03.611Z,7.70
2019-03-31T07:09:32.561Z,7.80
2019-03-31T07:12:01.019Z,7.80
2019-03-31T07:14:29.828Z,8.00
2019-03-31T07:16:58.325Z,8.00
2019-03-31T07:19:26.856Z,8.10
2019-03-31T07:21:55.346Z,8.20
2019-03-31T07:24:23.880Z,8.40
2019-03-31T07:26:52.603Z,8.40
2019-03-31T07:29:21.332Z,8.50
2019-03-31T07:31:49.820Z,8.60
2019-03-31T07:34:18.356Z,8.70
2019-03-31T07:36:47.109Z,8.80
2019-03-31T07:39:16.080Z,8.90
2019-03-31T07:41:44.748Z,8.90
2019-03-31T07:44:15.356Z,9.00
2019-03-31T07:46:43.772Z,9.10
2019-03-31T07:49:12.333Z,9.20
2019-03-31T07:51:41.148Z,9.40
2019-03-31T07:54:09.632Z,9.50
2019-03-31T07:56:38.177Z,9.60
2019-03-31T07:59:07.111Z,9.70
2019-03-31T08:01:35.644Z,9.90
2019-03-31T08:04:04.112Z,9.90
2019-03-31T08:06:32.679Z,10.00
2019-03-31T08:09:01.142Z,10.10
2019-03-31T08:11:29.704Z,10.20
2019-03-31T08:13:58.168Z,10.30
2019-03-31T08:16:26.656Z,10.50
2019-03-31T08:18:55.196Z,10.60
2019-03-31T08:21:23.684Z,10.70
2019-03-31T08:23:52.452Z,10.90
2019-03-31T08:26:21.024Z,11.00
2019-03-31T08:28:49.488Z,11.10
2019-03-31T08:31:18.288Z,11.20
2019-03-31T08:33:47.076Z,11.40
2019-03-31T08:36:15.543Z,11.50
2019-03-31T08:38:44.104Z,11.70
2019-03-31T08:41:12.568Z,11.80
2019-03-31T08:43:41.052Z,12.00
2019-03-31T08:46:09.588Z,12.20
2019-03-31T08:48:38.079Z,12.50
2019-03-31T08:51:06.616Z,12.70
2019-03-31T08:53:35.108Z,12.80
2019-03-31T08:56:03.573Z,13.10
2019-03-31T08:58:32.200Z,13.30
2019-03-31T09:01:02.384Z,13.50
2019-03-31T09:03:30.848Z,13.70
2019-03-31T09:06:02.299Z,13.80
2019-03-31T09:08:29.605Z,13.90
2019-03-31T09:10:58.164Z,14.00
2019-03-31T09:13:26.630Z,14.10
2019-03-31T09:15:55.530Z,14.20
2019-03-31T09:18:24.091Z,14.30
2019-03-31T09:20:52.579Z,14.40
2019-03-31T09:23:21.042Z,14.50
2019-03-31T09:25:49.615Z,14.50
2019-03-31T09:28:18.148Z,14.60
2019-03-31T09:30:47.084Z,15.10
2019-03-31T09:33:15.632Z,15.50
2019-03-31T09:35:44.168Z,16.00
2019-03-31T09:38:12.655Z,16.50
2019-03-31T09:40:41.196Z,17.20
2019-03-31T09:43:10.024Z,18.70
2019-03-31T09:45:38.557Z,20.80
2019-03-31T09:48:07.115Z,23.30
2019-03-31T09:50:35.577Z,25.30
2019-03-31T09:53:04.141Z,27.00
2019-03-31T09:55:32.684Z,28.80
2019-03-31T09:58:01.344Z,30.50
2019-03-31T10:00:50.899Z,32.40
2019-03-31T10:03:20.592Z,33.90
2019-03-31T10:05:49.571Z,34.90
2019-03-31T10:08:21.719Z,34.40
2019-03-31T10:10:48.523Z,35.60
2019-03-31T10:13:17.051Z,36.80
2019-03-31T10:15:45.540Z,37.60
2019-03-31T10:18:14.075Z,38.50
2019-03-31T10:20:42.632Z,39.70
2019-03-31T10:23:11.095Z,40.20
2019-03-31T10:25:39.649Z,40.70
2019-03-31T10:28:08.196Z,40.90
2019-03-31T10:30:39.291Z,40.50
2019-03-31T10:33:09.427Z,40.40
2019-03-31T10:35:38.112Z,39.90
2019-03-31T10:38:06.807Z,40.30
2019-03-31T10:40:35.484Z,41.20
2019-03-31T10:43:04.229Z,42.10
2019-03-31T10:45:32.751Z,42.80
2019-03-31T10:48:01.235Z,42.10
2019-03-31T10:50:29.699Z,42.20
2019-03-31T10:52:58.485Z,42.40
2019-03-31T10:55:27.093Z,43.20
2019-03-31T10:57:55.858Z,43.50
2019-03-31T11:00:35.174Z,43.50
2019-03-31T11:03:04.448Z,43.60
2019-03-31T11:05:33.214Z,43.50
2019-03-31T11:08:01.712Z,44.30
2019-03-31T11:10:30.342Z,44.50
2019-03-31T11:12:58.939Z,43.70
2019-03-31T11:15:27.940Z,44.20
2019-03-31T11:17:56.471Z,44.10
2019-03-31T11:20:24.968Z,44.10
2019-03-31T11:23:03.940Z,44.10
2019-03-31T11:25:32.503Z,43.80
2019-03-31T11:28:01.289Z,43.80
2019-03-31T11:30:29.771Z,44.40
2019-03-31T11:32:58.319Z,44.60
2019-03-31T11:35:26.771Z,44.00
2019-03-31T11:37:55.629Z,44.00
2019-03-31T11:40:24.158Z,44.40
2019-03-31T11:42:52.720Z,45.20
2019-03-31T11:45:21.684Z,44.90
2019-03-31T11:47:50.175Z,43.50
2019-03-31T11:50:18.980Z,43.30
2019-03-31T11:52:47.472Z,42.60
2019-03-31T11:55:16.080Z,42.80
2019-03-31T11:57:44.553Z,41.10
2019-03-31T12:00:15.093Z,39.80
2019-03-31T12:02:43.965Z,38.80
2019-03-31T12:05:13.146Z,37.60
2019-03-31T12:07:46.981Z,35.70
2019-03-31T12:10:12.292Z,34.90
2019-03-31T12:12:40.747Z,34.20
2019-03-31T12:15:09.679Z,33.90
2019-03-31T12:17:38.215Z,33.50
2019-03-31T12:20:08.335Z,33.30
2019-03-31T12:22:36.945Z,33.80
2019-03-31T12:25:08.950Z,34.20
2019-03-31T12:27:37.478Z,34.50
2019-03-31T12:30:09.481Z,35.70
2019-03-31T12:32:38.858Z,36.80
2019-03-31T12:35:08.016Z,38.00
2019-03-31T12:37:42.945Z,38.20
2019-03-31T12:40:09.028Z,38.80
2019-03-31T12:42:37.536Z,38.80
2019-03-31T12:45:07.200Z,39.10
2019-03-31T12:47:35.659Z,39.20
2019-03-31T12:50:06.280Z,38.50
2019-03-31T12:52:46.041Z,36.70
2019-03-31T12:55:06.040Z,36.10
2019-03-31T12:57:34.852Z,35.20
2019-03-31T13:00:04.958Z,34.70
2019-03-31T13:02:33.841Z,33.70
2019-03-31T13:05:02.401Z,32.30
2019-03-31T13:07:30.856Z,30.40
2019-03-31T13:09:59.336Z,29.20
2019-03-31T13:12:27.792Z,28.60
2019-03-31T13:14:56.280Z,27.80
2019-03-31T13:17:24.738Z,27.40
2019-03-31T13:19:53.196Z,26.90
2019-03-31T13:22:21.686Z,26.50
2019-03-31T13:24:50.215Z,26.10
2019-03-31T13:27:18.704Z,25.50
2019-03-31T13:29:47.167Z,25.10
2019-03-31T13:32:15.658Z,24.60
2019-03-31T13:34:44.581Z,24.30
2019-03-31T13:37:13.171Z,23.80
2019-03-31T13:39:41.635Z,23.30
2019-03-31T13:42:10.128Z,22.90
2019-03-31T13:44:38.675Z,22.60
2019-03-31T13:47:07.428Z,22.60
2019-03-31T13:49:35.924Z,22.50
2019-03-31T13:52:04.805Z,22.40
2019-03-31T13:54:33.439Z,22.30
2019-03-31T13:57:02.375Z,22.20
2019-03-31T13:59:31.779Z,22.20
2019-03-31T14:02:00.570Z,22.90
2019-03-31T14:04:29.248Z,24.00
2019-03-31T14:06:57.712Z,25.60
2019-03-31T14:09:26.203Z,26.90
2019-03-31T14:11:55.034Z,27.90
2019-03-31T14:14:23.523Z,28.60
2019-03-31T14:16:51.985Z,29.20
2019-03-31T14:19:20.472Z,29.20
2019-03-31T14:21:48.944Z,29.10
2019-03-31T14:24:17.412Z,28.90
2019-03-31T14:26:47.723Z,28.60
2019-03-31T14:29:16.450Z,28.30
2019-03-31T14:31:44.936Z,27.90
2019-03-31T14:34:13.523Z,27.70
2019-03-31T14:36:42.165Z,27.40
2019-03-31T14:39:10.964Z,27.30
2019-03-31T14:41:39.859Z,26.90
2019-03-31T14:44:08.472Z,26.70
2019-03-31T14:46:37.333Z,26.40
2019-03-31T14:49:05.788Z,25.90
2019-03-31T14:51:34.327Z,25.70
2019-03-31T14:54:02.811Z,25.20
2019-03-31T14:56:31.570Z,24.80
2019-03-31T14:59:00.124Z,24.50
2019-03-31T15:01:28.593Z,24.30
2019-03-31T15:03:57.416Z,24.40
2019-03-31T15:06:25.932Z,24.50
2019-03-31T15:08:54.878Z,24.50
2019-03-31T15:11:23.552Z,24.60
2019-03-31T15:13:52.115Z,24.60
2019-03-31T15:16:20.581Z,24.60
2019-03-31T15:18:49.532Z,24.50
2019-03-31T15:21:18.083Z,24.60
2019-03-31T15:23:46.808Z,24.50
2019-03-31T15:26:15.591Z,24.50
2019-03-31T15:28:45.497Z,24.60
2019-03-31T15:31:14.244Z,24.60
2019-03-31T15:33:42.699Z,24.50
2019-03-31T15:36:11.188Z,24.60
2019-03-31T15:38:39.662Z,24.50
2019-03-31T15:41:20.627Z,24.40
2019-03-31T15:43:38.411Z,24.20
2019-03-31T15:46:06.877Z,24.00
2019-03-31T15:48:35.364Z,23.80
2019-03-31T15:51:04.195Z,23.80
2019-03-31T15:53:32.760Z,23.80
2019-03-31T15:56:01.228Z,23.60
2019-03-31T15:58:30.152Z,23.50
2019-03-31T16:00:59.044Z,23.40
2019-03-31T16:03:27.960Z,23.30
2019-03-31T16:05:56.423Z,23.30
2019-03-31T16:08:24.907Z,23.10
2019-03-31T16:10:53.369Z,23.00
2019-03-31T16:13:22.372Z,22.90
2019-03-31T16:15:51.168Z,22.80
2019-03-31T16:18:19.699Z,22.60
2019-03-31T16:20:48.288Z,22.60
2019-03-31T16:23:16.744Z,22.70
2019-03-31T16:25:46.867Z,22.60
2019-03-31T16:28:15.348Z,22.50
2019-03-31T16:30:43.835Z,22.50
2019-03-31T16:33:12.368Z,22.40
2019-03-31T16:35:40.867Z,22.30
2019-03-31T16:38:09.776Z,22.10
2019-03-31T16:40:38.307Z,22.00
2019-03-31T16:43:06.791Z,22.00
2019-03-31T16:45:35.604Z,21.90
2019-03-31T16:48:04.596Z,21.80
2019-03-31T16:50:33.058Z,21.60
2019-03-31T16:53:01.551Z,21.40
2019-03-31T16:55:30.083Z,21.20
2019-03-31T16:57:58.576Z,21.00
2019-03-31T17:00:27.108Z,20.80
2019-03-31T17:02:55.572Z,20.70
2019-03-31T17:05:24.377Z,20.50
2019-03-31T17:07:52.911Z,20.30
2019-03-31T17:10:21.468Z,20.10
2019-03-31T17:12:49.938Z,19.90
2019-03-31T17:15:18.920Z,19.80
2019-03-31T17:17:47.452Z,19.60
2019-03-31T17:20:16.697Z,19.40
2019-03-31T17:22:45.159Z,19.20
2019-03-31T17:25:13.904Z,19.10
2019-03-31T17:27:42.365Z,18.90
2019-03-31T17:30:11.296Z,18.70
2019-03-31T17:32:39.819Z,18.60
2019-03-31T17:35:08.289Z,18.50
2019-03-31T17:37:36.772Z,18.30
2019-03-31T17:40:08.780Z,18.20
2019-03-31T17:42:37.343Z,18.10
2019-03-31T17:45:07.522Z,17.90
2019-03-31T17:47:36.079Z,17.70
2019-03-31T17:50:05.780Z,17.60
2019-03-31T17:52:34.384Z,17.40
2019-03-31T17:55:03.500Z,17.30
2019-03-31T17:57:32.063Z,17.20
2019-03-31T18:00:01.005Z,17.00
2019-03-31T18:02:29.565Z,16.90
2019-03-31T18:04:58.096Z,16.80
2019-03-31T18:07:26.627Z,16.60
2019-03-31T18:09:55.121Z,16.50
2019-03-31T18:12:23.571Z,16.40
2019-03-31T18:14:52.156Z,16.30
2019-03-31T18:17:20.620Z,16.20
2019-03-31T18:19:49.110Z,16.20
2019-03-31T18:22:17.579Z,16.10
2019-03-31T18:24:46.408Z,16.00
2019-03-31T18:27:14.943Z,15.90
2019-03-31T18:29:43.701Z,15.80
2019-03-31T18:32:13.136Z,15.80
2019-03-31T18:34:42.101Z,15.70
2019-03-31T18:37:10.928Z,15.50
2019-03-31T18:39:39.411Z,15.50
2019-03-31T18:42:07.875Z,15.40
2019-03-31T18:44:36.412Z,15.20
2019-03-31T18:47:04.977Z,15.10
2019-03-31T18:49:33.510Z,15.00
2019-03-31T18:52:02.141Z,14.80
2019-03-31T18:54:35.188Z,14.70
2019-03-31T18:57:05.716Z,14.60
2019-03-31T18:59:41.543Z,14.60
2019-03-31T19:02:28.219Z,14.40
2019-03-31T19:05:03.964Z,14.30
2019-03-31T19:07:34.460Z,14.20
2019-03-31T19:10:08.853Z,14.10
2019-03-31T19:12:39.407Z,14.10
2019-03-31T19:15:09.728Z,14.00
2019-03-31T19:17:56.253Z,13.90
2019-03-31T19:20:29.395Z,13.90
2019-03-31T19:23:14.600Z,13.80
2019-03-31T19:26:01.147Z,13.70
2019-03-31T19:28:37.067Z,13.70
2019-03-31T19:31:10.849Z,13.60
2019-03-31T19:33:47.048Z,13.50
2019-03-31T19:36:32.331Z,13.40
2019-03-31T19:39:14.919Z,13.40
2019-03-31T19:41:50.776Z,13.30
2019-03-31T19:44:36.264Z,13.20
2019-03-31T19:47:22.616Z,13.20
2019-03-31T19:49:58.580Z,13.20
2019-03-31T19:52:28.693Z,13.20
2019-03-31T19:55:07.737Z,13.10
2019-03-31T19:57:43.863Z,13.00
2019-03-31T20:00:31.320Z,12.90
2019-03-31T20:03:01.502Z,12.80
2019-03-31T20:05:49.761Z,12.60
2019-03-31T20:08:36.278Z,12.60
2019-03-31T20:11:21.551Z,12.50
2019-03-31T20:13:54.393Z,12.50
2019-03-31T20:16:40.724Z,12.40
2019-03-31T20:19:13.497Z,12.30
2019-03-31T20:21:43.675Z,12.20
2019-03-31T20:24:16.623Z,12.20
2019-03-31T20:26:49.756Z,12.10
2019-03-31T20:29:19.889Z,12.00
2019-03-31T20:31:55.936Z,12.00
2019-03-31T20:34:35.372Z,11.90
2019-03-31T20:37:08.376Z,11.90
2019-03-31T20:39:57.040Z,11.80
2019-03-31T20:42:31.640Z,11.80
2019-03-31T20:45:00.340Z,11.70
2019-03-31T20:47:28.975Z,11.70
2019-03-31T20:49:57.539Z,11.60
2019-03-31T20:52:26.104Z,11.60
2019-03-31T20:54:54.639Z,11.60
2019-03-31T20:57:23.128Z,11.50
2019-03-31T20:59:51.592Z,11.40
2019-03-31T21:02:20.051Z,11.30
2019-03-31T21:04:48.925Z,11.30
2019-03-31T21:07:17.464Z,11.20
2019-03-31T21:09:46.042Z,11.20
2019-03-31T21:12:14.570Z,11.20
2019-03-31T21:14:43.063Z,11.10
2019-03-31T21:17:11.600Z,11.10
2019-03-31T21:19:40.088Z,11.10
2019-03-31T21:22:08.879Z,10.90
2019-03-31T21:24:37.339Z,10.90
2019-03-31T21:27:05.828Z,10.80
2019-03-31T21:29:34.632Z,10.90
2019-03-31T21:32:03.211Z,10.80
2019-03-31T21:34:32.104Z,10.80
2019-03-31T21:37:00.671Z,10.70
2019-03-31T21:39:29.203Z,10.70
2019-03-31T21:41:57.765Z,10.70
2019-03-31T21:44:26.227Z,10.60
2019-03-31T21:46:56.084Z,10.60
2019-03-31T21:49:24.864Z,10.60
2019-03-31T21:51:53.332Z,10.60
2019-03-31T21:54:21.895Z,10.60
2019-03-31T21:56:50.364Z,10.50
2019-03-31T21:59:18.852Z,10.50
2019-03-31T22:01:47.796Z,10.50
2019-03-31T22:04:16.285Z,10.40
2019-03-31T22:06:44.744Z,10.40
2019-03-31T22:09:13.612Z,10.40
2019-03-31T22:11:42.500Z,10.30
2019-03-31T22:14:11.012Z,10.30
2019-03-31T22:16:39.640Z,10.20
2019-03-31T22:19:08.099Z,10.20
2019-03-31T22:21:36.669Z,10.10
2019-03-31T22:24:05.552Z,10.10
2019-03-31T22:26:34.109Z,10.00
2019-03-31T22:29:02.568Z,10.00
2019-03-31T22:31:31.127Z,10.00
2019-03-31T22:33:59.596Z,9.90
2019-03-31T22:36:28.151Z,9.90
2019-03-31T22:38:56.608Z,9.80
2019-03-31T22:41:25.139Z,9.80
2019-03-31T22:43:53.959Z,9.80
2019-03-31T22:46:22.496Z,9.80
2019-03-31T22:48:51.033Z,9.70
2019-03-31T22:51:19.599Z,9.70
2019-03-31T22:53:48.132Z,9.70
2019-03-31T22:56:17.113Z,9.70
2019-03-31T22:58:45.576Z,9.60
2019-03-31T23:01:14.176Z,9.60
2019-03-31T23:03:42.664Z,9.60
2019-03-31T23:06:11.195Z,9.60
2019-03-31T23:08:40.032Z,9.50
2019-03-31T23:11:08.496Z,9.50
2019-03-31T23:13:36.960Z,9.50
2019-03-31T23:16:05.617Z,9.40
2019-03-31T23:18:34.149Z,9.40
2019-03-31T23:21:02.717Z,9.40
2019-03-31T23:23:31.243Z,9.40
2019-03-31T23:25:59.705Z,9.30
2019-03-31T23:28:28.267Z,9.30
2019-03-31T23:30:56.800Z,9.20
2019-03-31T23:33:25.363Z,9.20
2019-03-31T23:35:53.888Z,9.20
2019-03-31T23:38:22.728Z,9.20
2019-03-31T23:40:51.268Z,9.10
2019-03-31T23:43:19.811Z,9.10
2019-03-31T23:45:48.427Z,9.00
2019-03-31T23:48:17.226Z,9.00
2019-03-31T23:50:45.783Z,8.90
2019-03-31T23:53:14.244Z,8.80
2019-03-31T23:55:42.876Z,8.80
2019-03-31T23:58:11.331Z,8.80
